createdAt,value
2022-10-04T00:02:34.381Z,82.35
2022-10-04T00:05:25.253Z,82.41
2022-10-04T00:08:44.023Z,82.43
2022-10-04T00:11:35.599Z,82.33
2022-10-04T00:14:28.376Z,82.52
2022-10-04T00:17:24.065Z,82.38
2022-10-04T00:20:51.091Z,82.51
2022-10-04T00:23:37.863Z,82.70
2022-10-04T00:26:24.655Z,82.64
2022-10-04T00:29:31.487Z,82.53
2022-10-04T00:32:27.838Z,82.59
2022-10-04T00:35:26.980Z,82.75
2022-10-04T00:38:26.482Z,82.82
2022-10-04T00:41:14.728Z,82.79
2022-10-04T00:44:05.673Z,82.70
2022-10-04T00:46:55.925Z,82.75
2022-10-04T00:49:46.359Z,82.67
2022-10-04T00:52:37.087Z,82.61
2022-10-04T00:55:36.446Z,82.67
2022-10-04T00:58:29.446Z,82.85
2022-10-04T01:05:35.335Z,82.90
2022-10-04T01:09:11.048Z,82.82
2022-10-04T01:12:47.239Z,82.87
2022-10-04T01:16:27.103Z,82.84
2022-10-04T01:20:03.174Z,82.88
2022-10-04T01:23:48.027Z,82.97
2022-10-04T01:27:20.156Z,83.13
2022-10-04T01:30:44.017Z,83.08
2022-10-04T01:34:17.246Z,83.10
2022-10-04T01:38:36.937Z,83.06
2022-10-04T01:46:56.481Z,83.08
2022-10-04T01:50:58.079Z,82.92
2022-10-04T01:54:58.116Z,82.79
2022-10-04T01:59:15.759Z,82.88
2022-10-04T02:03:13.029Z,82.55
2022-10-04T02:07:12.889Z,82.73
2022-10-04T02:11:13.397Z,82.68
2022-10-04T02:15:14.222Z,82.67
2022-10-04T02:19:10.076Z,82.77
2022-10-04T02:23:07.899Z,82.87
2022-10-04T02:26:43.965Z,83.07
2022-10-04T02:30:22.893Z,82.99
2022-10-04T02:33:52.113Z,83.12
2022-10-04T02:37:28.923Z,82.96
2022-10-04T02:41:09.959Z,83.09
2022-10-04T02:48:20.029Z,83.22
2022-10-04T02:52:21.682Z,83.24
2022-10-04T03:00:14.565Z,83.33
2022-10-04T03:04:09.324Z,83.31
2022-10-04T03:08:06.264Z,83.32
2022-10-04T03:12:01.310Z,83.19
2022-10-04T03:16:02.117Z,83.50
2022-10-04T03:24:25.819Z,83.32
2022-10-04T03:28:17.717Z,83.45
2022-10-04T03:32:09.495Z,83.63
2022-10-04T03:36:09.361Z,83.64
2022-10-04T03:40:05.326Z,83.57
2022-10-04T03:44:04.747Z,83.80
2022-10-04T03:48:07.114Z,83.90
2022-10-04T03:52:03.926Z,83.63
2022-10-04T03:56:04.235Z,83.57
2022-10-04T04:00:01.621Z,83.51
2022-10-04T04:03:57.540Z,83.56
2022-10-04T04:07:56.275Z,83.52
2022-10-04T04:11:52.299Z,83.51
2022-10-04T04:15:48.034Z,83.33
2022-10-04T04:19:53.126Z,83.46
2022-10-04T04:23:53.724Z,83.41
2022-10-04T04:27:50.843Z,83.12
2022-10-04T04:31:46.678Z,83.14
2022-10-04T04:35:42.583Z,83.16
2022-10-04T04:39:56.270Z,83.07
2022-10-04T04:44:11.568Z,82.97
2022-10-04T04:48:07.282Z,83.08
2022-10-04T04:52:01.167Z,83.10
2022-10-04T04:56:01.773Z,83.13
2022-10-04T04:59:29.140Z,83.17
2022-10-04T05:03:01.026Z,83.32
2022-10-04T05:06:33.016Z,83.51
2022-10-04T05:10:05.190Z,83.61
2022-10-04T05:13:37.048Z,83.46
2022-10-04T05:16:59.179Z,83.44
2022-10-04T05:20:31.117Z,83.30
2022-10-04T05:24:03.145Z,83.28
2022-10-04T05:27:39.084Z,83.48
2022-10-04T05:31:11.146Z,83.47
2022-10-04T05:34:43.136Z,83.73
2022-10-04T05:38:19.128Z,83.59
2022-10-04T05:42:18.477Z,83.59
2022-10-04T05:46:14.416Z,83.61
2022-10-04T05:49:50.277Z,83.63
2022-10-04T05:53:26.360Z,83.80
2022-10-04T05:56:58.309Z,83.85
2022-10-04T06:00:54.663Z,83.74
2022-10-04T06:04:54.084Z,83.74
2022-10-04T06:08:50.128Z,83.64
2022-10-04T06:12:47.827Z,83.54
2022-10-04T06:16:34.881Z,83.38
2022-10-04T06:20:06.759Z,83.28
2022-10-04T06:23:42.797Z,83.36
2022-10-04T06:27:15.807Z,83.16
2022-10-04T06:30:56.875Z,83.07
2022-10-04T06:34:32.725Z,83.11
2022-10-04T06:38:05.829Z,83.10
2022-10-04T06:41:34.768Z,83.42
2022-10-04T06:45:16.764Z,82.97
2022-10-04T06:48:56.729Z,82.91
2022-10-04T06:52:32.827Z,82.58
2022-10-04T06:56:07.711Z,82.66
2022-10-04T06:59:44.839Z,82.48
2022-10-04T07:03:17.704Z,82.39
2022-10-04T07:07:15.659Z,82.42
2022-10-04T07:11:13.398Z,82.09
2022-10-04T07:15:10.352Z,82.28
2022-10-04T07:19:09.889Z,81.96
2022-10-04T07:23:06.165Z,81.66
2022-10-04T07:27:02.679Z,81.77
2022-10-04T07:31:02.557Z,81.86
2022-10-04T07:34:59.309Z,81.79
2022-10-04T07:39:18.268Z,81.28
2022-10-04T07:43:15.974Z,81.37
2022-10-04T07:47:12.056Z,81.25
2022-10-04T07:51:12.679Z,80.95
2022-10-04T07:55:08.727Z,80.77
2022-10-04T07:59:05.487Z,80.49
2022-10-04T08:03:20.841Z,80.86
2022-10-04T08:07:20.200Z,82.71
2022-10-04T08:11:17.290Z,79.45
2022-10-04T08:15:20.898Z,78.48
2022-10-04T08:19:24.406Z,77.81
2022-10-04T08:23:27.054Z,77.32
2022-10-04T08:27:23.000Z,77.19
2022-10-04T08:30:54.938Z,77.34
2022-10-04T08:34:31.973Z,76.44
2022-10-04T08:38:01.974Z,77.64
2022-10-04T08:42:03.776Z,78.11
2022-10-04T08:45:53.799Z,77.92
2022-10-04T08:49:32.805Z,77.86
2022-10-04T08:53:10.917Z,77.95
2022-10-04T08:56:54.805Z,78.59
2022-10-04T09:00:34.684Z,79.03
2022-10-04T09:04:17.805Z,78.91
2022-10-04T09:08:13.521Z,77.04
2022-10-04T09:11:52.649Z,75.22
2022-10-04T09:15:22.528Z,74.00
2022-10-04T09:18:54.537Z,72.14
2022-10-04T09:23:06.149Z,72.92
2022-10-04T09:26:39.038Z,74.95
2022-10-04T09:30:28.935Z,72.17
2022-10-04T09:34:06.419Z,71.40
2022-10-04T09:37:48.919Z,69.88
2022-10-04T09:41:20.006Z,70.55
2022-10-04T09:44:51.991Z,70.94
2022-10-04T09:48:24.020Z,70.36
2022-10-04T09:52:19.907Z,70.78
2022-10-04T09:55:52.012Z,71.11
2022-10-04T09:59:37.879Z,71.36
2022-10-04T10:03:28.912Z,71.72
2022-10-04T10:07:01.814Z,71.99
2022-10-04T10:10:47.977Z,72.98
2022-10-04T10:14:22.987Z,71.32
2022-10-04T10:18:22.235Z,70.17
2022-10-04T10:21:54.450Z,68.22
2022-10-04T10:25:32.230Z,65.94
2022-10-04T10:29:14.457Z,65.18
2022-10-04T10:33:28.132Z,63.46
2022-10-04T10:37:07.243Z,66.25
2022-10-04T10:40:56.090Z,66.18
2022-10-04T10:44:41.328Z,67.29
2022-10-04T10:48:17.079Z,66.53
2022-10-04T10:51:53.289Z,67.35
2022-10-04T10:55:35.123Z,66.76
2022-10-04T10:59:09.227Z,64.82
2022-10-04T11:02:53.212Z,63.67
2022-10-04T11:06:32.197Z,63.88
2022-10-04T11:09:56.112Z,64.22
2022-10-04T11:13:33.218Z,65.00
2022-10-04T11:17:13.179Z,63.08
2022-10-04T11:20:49.259Z,60.94
2022-10-04T11:24:26.118Z,60.97
2022-10-04T11:28:07.295Z,62.85
2022-10-04T11:32:23.098Z,62.39
2022-10-04T11:36:05.261Z,59.53
2022-10-04T11:39:47.122Z,60.15
2022-10-04T11:43:30.289Z,59.03
2022-10-04T11:47:10.163Z,57.18
2022-10-04T11:50:53.221Z,57.08
2022-10-04T11:54:33.117Z,57.70
2022-10-04T11:58:09.755Z,58.52
2022-10-04T12:01:54.090Z,59.75
2022-10-04T12:05:47.236Z,57.92
2022-10-04T12:09:27.090Z,58.22
2022-10-04T12:13:15.298Z,58.34
2022-10-04T12:16:48.434Z,57.95
2022-10-04T12:20:41.219Z,56.99
2022-10-04T12:24:27.069Z,57.07
2022-10-04T12:28:19.284Z,58.21
2022-10-04T12:31:58.102Z,58.16
2022-10-04T12:35:43.347Z,58.74
2022-10-04T12:39:19.143Z,57.95
2022-10-04T12:42:50.227Z,57.49
2022-10-04T12:46:41.096Z,56.85
2022-10-04T12:50:12.241Z,57.62
2022-10-04T12:54:01.074Z,58.14
2022-10-04T12:57:39.325Z,57.76
2022-10-04T13:01:06.112Z,57.85
2022-10-04T13:04:32.392Z,57.44
2022-10-04T13:08:22.062Z,55.97
2022-10-04T13:11:55.220Z,55.64
2022-10-04T13:19:22.092Z,53.50
2022-10-04T13:22:57.713Z,54.63
2022-10-04T13:26:28.096Z,55.50
2022-10-04T13:29:37.929Z,54.11
2022-10-04T13:33:15.115Z,52.23
2022-10-04T13:36:52.206Z,53.21
2022-10-04T13:40:49.068Z,54.13
2022-10-04T13:44:22.246Z,52.48
2022-10-04T13:48:21.615Z,51.13
2022-10-04T13:52:11.251Z,49.46
2022-10-04T13:55:48.049Z,51.96
2022-10-04T13:59:22.287Z,51.61
2022-10-04T14:03:16.101Z,52.23
2022-10-04T14:06:52.284Z,51.91
2022-10-04T14:10:56.062Z,51.54
2022-10-04T14:14:33.249Z,52.05
2022-10-04T14:18:13.113Z,50.81
2022-10-04T14:21:53.201Z,50.42
2022-10-04T14:25:27.060Z,51.09
2022-10-04T14:29:01.254Z,51.80
2022-10-04T14:32:32.052Z,51.48
2022-10-04T14:36:15.180Z,48.79
2022-10-04T14:39:52.028Z,50.59
2022-10-04T14:43:31.201Z,51.12
2022-10-04T14:47:11.064Z,51.07
2022-10-04T14:51:03.251Z,50.02
2022-10-04T14:54:44.112Z,50.55
2022-10-04T14:58:24.166Z,50.89
2022-10-04T15:01:56.203Z,51.01
2022-10-04T15:05:52.124Z,52.30
2022-10-04T15:09:28.190Z,52.08
2022-10-04T15:13:10.487Z,51.88
2022-10-04T15:16:48.530Z,52.45
2022-10-04T15:20:26.094Z,52.60
2022-10-04T15:24:03.175Z,53.23
2022-10-04T15:27:50.050Z,53.72
2022-10-04T15:31:24.217Z,54.40
2022-10-04T15:35:23.076Z,54.74
2022-10-04T15:39:00.207Z,55.27
2022-10-04T15:42:42.077Z,55.69
2022-10-04T15:46:34.136Z,55.79
2022-10-04T15:50:27.067Z,56.44
2022-10-04T15:53:57.158Z,56.51
2022-10-04T15:57:31.067Z,57.07
2022-10-04T16:01:20.315Z,57.28
2022-10-04T16:05:09.044Z,57.33
2022-10-04T16:08:40.149Z,58.15
2022-10-04T16:12:23.086Z,58.15
2022-10-04T16:16:03.209Z,58.47
2022-10-04T16:19:32.127Z,58.63
2022-10-04T16:23:03.234Z,59.15
2022-10-04T16:26:36.051Z,59.47
2022-10-04T16:30:26.509Z,59.65
2022-10-04T16:34:08.189Z,59.97
2022-10-04T16:37:20.010Z,60.15
2022-10-04T16:40:27.267Z,60.61
2022-10-04T16:43:20.995Z,60.95
2022-10-04T16:46:46.750Z,61.12
2022-10-04T16:49:48.100Z,61.35
2022-10-04T16:53:33.930Z,61.46
2022-10-04T16:56:22.058Z,61.89
2022-10-04T16:59:13.139Z,61.89
2022-10-04T17:02:37.179Z,61.92
2022-10-04T17:05:54.907Z,62.15
2022-10-04T17:08:53.973Z,62.34
2022-10-04T17:11:46.946Z,62.38
2022-10-04T17:14:50.136Z,62.53
2022-10-04T17:17:46.870Z,62.71
2022-10-04T17:20:46.969Z,62.87
2022-10-04T17:23:45.990Z,63.02
2022-10-04T17:26:41.799Z,63.22
2022-10-04T17:30:02.439Z,63.33
2022-10-04T17:32:55.811Z,63.26
2022-10-04T17:36:19.507Z,63.54
2022-10-04T17:39:50.738Z,64.07
2022-10-04T17:42:52.718Z,64.05
2022-10-04T17:45:50.118Z,64.35
2022-10-04T17:49:34.280Z,64.44
2022-10-04T17:52:50.503Z,64.67
2022-10-04T17:55:53.764Z,64.90
2022-10-04T17:58:59.472Z,65.10
2022-10-04T18:02:17.946Z,65.10
2022-10-04T18:05:18.595Z,65.30
2022-10-04T18:08:18.331Z,65.23
2022-10-04T18:11:23.132Z,65.39
2022-10-04T18:14:38.167Z,65.63
2022-10-04T18:17:48.654Z,65.72
2022-10-04T18:20:41.075Z,65.90
2022-10-04T18:23:30.988Z,66.00
2022-10-04T18:26:18.700Z,66.15
2022-10-04T18:29:09.005Z,66.30
2022-10-04T18:32:00.964Z,66.47
2022-10-04T18:34:54.744Z,66.37
2022-10-04T18:37:42.007Z,66.47
2022-10-04T18:40:45.917Z,66.50
2022-10-04T18:43:42.077Z,66.84
2022-10-04T18:46:38.924Z,66.75
2022-10-04T18:49:32.510Z,66.69
2022-10-04T18:52:29.331Z,66.87
2022-10-04T18:55:46.128Z,66.87
2022-10-04T18:59:12.635Z,66.70
2022-10-04T19:02:18.999Z,66.69
2022-10-04T19:05:27.245Z,67.03
2022-10-04T19:08:31.708Z,66.94
2022-10-04T19:11:40.338Z,67.08
2022-10-04T19:15:00.291Z,67.19
2022-10-04T19:18:24.578Z,66.94
2022-10-04T19:21:29.193Z,67.50
2022-10-04T19:24:38.676Z,67.53
2022-10-04T19:28:09.501Z,67.56
2022-10-04T19:31:21.600Z,67.56
2022-10-04T19:34:55.665Z,67.54
2022-10-04T19:37:55.888Z,67.85
2022-10-04T19:41:44.267Z,67.99
2022-10-04T19:45:23.026Z,67.82
2022-10-04T19:48:54.140Z,67.93
2022-10-04T19:52:24.974Z,68.12
2022-10-04T19:56:08.116Z,68.52
2022-10-04T19:59:41.978Z,68.60
2022-10-04T20:03:12.183Z,68.67
2022-10-04T20:06:50.979Z,68.77
2022-10-04T20:10:52.236Z,68.86
2022-10-04T20:14:28.967Z,69.05
2022-10-04T20:18:03.150Z,68.78
2022-10-04T20:21:33.956Z,69.13
2022-10-04T20:25:07.101Z,69.16
2022-10-04T20:28:37.024Z,69.27
2022-10-04T20:32:07.322Z,69.31
2022-10-04T20:35:38.963Z,69.33
2022-10-04T20:39:28.096Z,68.93
2022-10-04T20:43:11.004Z,69.29
2022-10-04T20:46:40.160Z,69.23
2022-10-04T20:50:18.935Z,69.22
2022-10-04T20:53:53.161Z,69.52
2022-10-04T20:57:12.838Z,69.55
2022-10-04T21:00:40.186Z,69.67
2022-10-04T21:03:57.002Z,69.72
2022-10-04T21:07:31.214Z,69.69
2022-10-04T21:10:46.983Z,69.88
2022-10-04T21:14:18.112Z,69.84
2022-10-04T21:17:58.001Z,70.05
2022-10-04T21:21:29.320Z,70.26
2022-10-04T21:25:04.980Z,70.03
2022-10-04T21:28:38.147Z,70.25
2022-10-04T21:32:09.011Z,70.46
2022-10-04T21:35:51.114Z,70.38
2022-10-04T21:39:27.038Z,70.41
2022-10-04T21:42:58.055Z,70.51
2022-10-04T21:46:29.029Z,70.56
2022-10-04T21:50:00.057Z,70.56
2022-10-04T21:53:31.012Z,70.87
2022-10-04T21:57:00.093Z,70.91
2022-10-04T22:00:12.214Z,70.84
2022-10-04T22:03:30.400Z,70.87
2022-10-04T22:06:57.484Z,70.99
2022-10-04T22:10:05.740Z,71.09
2022-10-04T22:13:21.965Z,71.10
2022-10-04T22:16:53.111Z,71.37
2022-10-04T22:20:23.966Z,71.34
2022-10-04T22:24:11.266Z,71.33
2022-10-04T22:27:45.977Z,71.09
2022-10-04T22:31:13.240Z,71.39
2022-10-04T22:34:29.973Z,71.66
2022-10-04T22:38:14.228Z,71.64
2022-10-04T22:41:44.964Z,71.80
2022-10-04T22:45:16.083Z,71.53
2022-10-04T22:48:50.973Z,71.58
2022-10-04T22:52:22.084Z,71.41
2022-10-04T22:55:52.025Z,71.56
2022-10-04T22:59:23.075Z,71.41
2022-10-04T23:02:53.986Z,71.75
2022-10-04T23:06:25.116Z,71.68
2022-10-04T23:09:54.972Z,71.92
2022-10-04T23:13:25.159Z,71.63
2022-10-04T23:16:55.961Z,71.75
2022-10-04T23:20:30.059Z,71.84
2022-10-04T23:24:05.949Z,72.03
2022-10-04T23:27:37.092Z,71.94
2022-10-04T23:31:09.017Z,72.19
2022-10-04T23:34:40.035Z,72.59
2022-10-04T23:38:11.944Z,72.48
2022-10-04T23:41:53.021Z,72.54
2022-10-04T23:45:12.427Z,72.59
2022-10-04T23:48:43.081Z,72.32
2022-10-04T23:52:16.934Z,72.65
2022-10-04T23:55:51.068Z,72.27
2022-10-04T23:59:24.946Z,72.15
